createdAt,value
2023-05-22T00:00:15.124Z,6.28
2023-05-22T00:03:05.342Z,4.88
2023-05-22T00:05:34.905Z,4.00
2023-05-22T00:08:05.776Z,6.82
2023-05-22T00:10:34.166Z,5.93
2023-05-22T00:13:04.239Z,12.07
2023-05-22T00:15:34.447Z,6.18
2023-05-22T00:18:06.842Z,6.00
2023-05-22T00:20:41.145Z,7.65
2023-05-22T00:23:11.359Z,6.50
2023-05-22T00:25:42.958Z,5.85
2023-05-22T00:28:12.035Z,5.85
2023-05-22T00:30:40.339Z,8.23
2023-05-22T00:33:09.317Z,15.13
2023-05-22T00:35:37.599Z,9.57
2023-05-22T00:38:08.017Z,4.28
2023-05-22T00:40:36.660Z,4.90
2023-05-22T00:43:08.832Z,7.00
2023-05-22T00:45:37.853Z,7.57
2023-05-22T00:50:42.732Z,7.93
2023-05-22T00:53:13.689Z,13.88
2023-05-22T00:55:44.303Z,11.05
2023-05-22T00:58:21.364Z,9.07
2023-05-22T01:00:49.916Z,11.48
2023-05-22T01:03:26.328Z,12.20
2023-05-22T01:05:56.076Z,11.18
2023-05-22T01:08:25.285Z,12.18
2023-05-22T01:11:10.697Z,9.43
2023-05-22T01:13:48.068Z,8.00
2023-05-22T01:16:50.905Z,6.68
2023-05-22T01:19:32.017Z,6.97
2023-05-22T01:22:27.060Z,10.35
2023-05-22T01:25:17.456Z,6.35
2023-05-22T01:27:48.713Z,5.70
2023-05-22T01:30:46.505Z,6.75
2023-05-22T01:33:19.402Z,5.55
2023-05-22T01:35:53.146Z,9.50
2023-05-22T01:38:22.085Z,5.38
2023-05-22T01:40:50.705Z,9.52
2023-05-22T01:43:22.183Z,7.45
2023-05-22T01:45:51.918Z,6.25
2023-05-22T01:48:21.037Z,4.63
2023-05-22T01:50:53.191Z,6.18
2023-05-22T01:54:00.049Z,4.40
2023-05-22T01:56:45.899Z,7.78
2023-05-22T01:59:21.778Z,4.18
2023-05-22T02:01:53.589Z,4.57
2023-05-22T02:04:23.431Z,5.10
2023-05-22T02:06:54.246Z,5.53
2023-05-22T02:09:27.386Z,4.55
2023-05-22T02:11:57.079Z,4.00
2023-05-22T02:14:26.271Z,10.05
2023-05-22T02:16:58.875Z,5.35
2023-05-22T02:19:29.102Z,5.30
2023-05-22T02:21:57.916Z,5.55
2023-05-22T02:24:26.035Z,7.10
2023-05-22T02:26:58.723Z,5.57
2023-05-22T02:29:26.986Z,4.85
2023-05-22T02:31:55.643Z,6.07
2023-05-22T02:34:25.138Z,10.63
2023-05-22T02:36:54.284Z,9.65
2023-05-22T02:39:22.879Z,8.85
2023-05-22T02:41:51.243Z,5.20
2023-05-22T02:44:20.052Z,11.48
2023-05-22T02:46:48.932Z,10.48
2023-05-22T02:49:20.580Z,9.25
2023-05-22T02:51:50.087Z,12.88
2023-05-22T02:54:18.597Z,5.72
2023-05-22T02:56:47.270Z,34.47
2023-05-22T02:59:17.096Z,7.13
2023-05-22T03:01:47.386Z,6.10
2023-05-22T03:04:17.578Z,5.18
2023-05-22T03:06:46.478Z,6.47
2023-05-22T03:09:14.749Z,7.63
2023-05-22T03:11:43.694Z,8.43
2023-05-22T03:14:13.557Z,6.28
2023-05-22T03:16:43.844Z,6.60
2023-05-22T03:19:16.291Z,5.68
2023-05-22T03:21:45.871Z,14.18
2023-05-22T03:24:17.517Z,5.45
2023-05-22T03:26:48.652Z,110.20
2023-05-22T03:29:23.380Z,15.50
2023-05-22T03:31:54.532Z,6.55
2023-05-22T03:34:25.586Z,6.05
2023-05-22T03:36:54.590Z,9.23
2023-05-22T03:39:24.808Z,6.47
2023-05-22T03:42:02.135Z,6.18
2023-05-22T03:44:31.058Z,7.63
2023-05-22T03:47:04.008Z,6.85
2023-05-22T03:49:32.809Z,8.48
2023-05-22T03:52:03.898Z,9.38
2023-05-22T03:54:35.056Z,11.18
2023-05-22T03:57:05.772Z,12.52
2023-05-22T03:59:34.622Z,13.38
2023-05-22T04:02:03.085Z,4.75
2023-05-22T04:04:34.388Z,14.23
2023-05-22T04:07:08.395Z,6.22
2023-05-22T04:09:39.090Z,10.90
2023-05-22T04:12:10.048Z,5.50
2023-05-22T04:14:41.791Z,4.78
2023-05-22T04:17:12.261Z,4.90
2023-05-22T04:19:41.360Z,5.25
2023-05-22T04:22:10.695Z,5.00
2023-05-22T04:24:40.820Z,5.07
2023-05-22T04:27:10.238Z,33.80
2023-05-22T04:29:42.587Z,6.72
2023-05-22T04:32:11.726Z,5.70
2023-05-22T04:34:41.712Z,10.70
2023-05-22T04:37:14.810Z,4.10
2023-05-22T04:39:43.100Z,3.47
2023-05-22T04:42:14.893Z,8.60
2023-05-22T04:44:44.124Z,6.22
2023-05-22T04:47:14.720Z,5.20
2023-05-22T04:49:43.786Z,6.65
2023-05-22T04:52:13.011Z,10.02
2023-05-22T04:54:43.547Z,6.05
2023-05-22T04:57:12.779Z,5.65
2023-05-22T04:59:43.844Z,3.85
2023-05-22T05:02:18.611Z,5.10
2023-05-22T05:04:47.712Z,6.82
2023-05-22T05:07:18.886Z,3.95
2023-05-22T05:09:47.286Z,4.40
2023-05-22T05:12:16.856Z,3.75
2023-05-22T05:14:45.148Z,3.65
2023-05-22T05:17:17.777Z,3.88
2023-05-22T05:19:47.378Z,4.07
2023-05-22T05:22:16.498Z,4.82
2023-05-22T05:24:45.284Z,4.72
2023-05-22T05:27:14.317Z,5.90
2023-05-22T05:29:42.764Z,2.53
2023-05-22T05:32:20.139Z,2.95
2023-05-22T05:34:52.673Z,8.73
2023-05-22T05:37:43.558Z,5.03
2023-05-22T05:40:23.637Z,2.28
2023-05-22T05:42:54.297Z,33.10
2023-05-22T05:45:26.463Z,10.05
2023-05-22T05:47:55.053Z,4.93
2023-05-22T05:50:23.870Z,5.40
2023-05-22T05:52:53.214Z,4.15
2023-05-22T05:55:23.362Z,5.32
2023-05-22T05:57:52.954Z,5.35
2023-05-22T06:00:28.921Z,6.03
2023-05-22T06:03:00.055Z,6.97
2023-05-22T06:05:48.782Z,15.32
2023-05-22T06:08:45.966Z,3.92
2023-05-22T06:11:14.278Z,2.58
2023-05-22T06:13:52.798Z,4.30
2023-05-22T06:16:20.893Z,6.07
2023-05-22T06:18:49.791Z,3.25
2023-05-22T06:21:21.590Z,8.23
2023-05-22T06:23:51.870Z,6.75
2023-05-22T06:26:22.534Z,2.25
2023-05-22T06:28:54.659Z,3.90
2023-05-22T06:31:24.726Z,3.20
2023-05-22T06:33:56.988Z,9.70
2023-05-22T06:36:26.625Z,2.00
2023-05-22T06:38:56.465Z,4.63
2023-05-22T06:41:43.583Z,1.85
2023-05-22T06:44:14.549Z,3.75
2023-05-22T06:46:42.905Z,4.35
2023-05-22T06:49:18.605Z,11.40
2023-05-22T06:51:50.033Z,5.90
2023-05-22T06:54:21.310Z,3.08
2023-05-22T06:59:21.209Z,4.15
2023-05-22T07:02:07.694Z,2.70
2023-05-22T07:04:53.719Z,3.22
2023-05-22T07:07:27.305Z,2.58
2023-05-22T07:09:56.074Z,5.13
2023-05-22T07:12:28.235Z,5.05
2023-05-22T07:14:59.437Z,2.90
2023-05-22T07:17:28.081Z,3.88
2023-05-22T07:19:58.670Z,2.63
2023-05-22T07:22:27.502Z,5.32
2023-05-22T07:24:57.739Z,2.58
2023-05-22T07:30:02.352Z,4.55
2023-05-22T07:32:32.273Z,4.28
2023-05-22T07:35:03.613Z,3.28
2023-05-22T07:37:32.692Z,2.30
2023-05-22T07:40:01.033Z,2.80
2023-05-22T07:42:30.960Z,10.15
2023-05-22T07:44:59.803Z,2.13
2023-05-22T07:47:30.302Z,4.63
2023-05-22T07:49:59.016Z,4.10
2023-05-22T07:52:27.315Z,8.07
2023-05-22T07:54:56.194Z,12.52
2023-05-22T07:57:25.896Z,2.35
2023-05-22T07:59:56.984Z,6.10
2023-05-22T08:02:25.326Z,2.72
2023-05-22T08:04:53.952Z,6.60
2023-05-22T08:07:22.044Z,3.75
2023-05-22T08:09:50.733Z,2.65
2023-05-22T08:12:18.781Z,29.55
2023-05-22T08:14:47.535Z,1.88
2023-05-22T08:17:15.605Z,8.43
2023-05-22T08:19:45.359Z,4.03
2023-05-22T08:22:13.856Z,3.25
2023-05-22T08:24:42.210Z,4.93
2023-05-22T08:27:11.762Z,3.25
2023-05-22T08:29:41.023Z,6.00
2023-05-22T08:32:09.508Z,2.60
2023-05-22T08:34:37.934Z,8.70
2023-05-22T08:37:06.609Z,10.88
2023-05-22T08:39:35.142Z,4.68
2023-05-22T08:42:03.500Z,2.53
2023-05-22T08:44:31.868Z,4.38
2023-05-22T08:47:04.766Z,2.72
2023-05-22T08:49:33.232Z,3.38
2023-05-22T08:52:10.407Z,5.28
2023-05-22T08:54:45.384Z,8.43
2023-05-22T08:57:13.380Z,8.10
2023-05-22T08:59:42.269Z,8.15
2023-05-22T09:02:11.372Z,10.75
2023-05-22T09:04:43.367Z,5.43
2023-05-22T09:07:11.690Z,3.17
2023-05-22T09:09:40.154Z,4.32
2023-05-22T09:12:11.602Z,4.45
2023-05-22T09:14:44.266Z,3.50
2023-05-22T09:17:16.701Z,2.47
2023-05-22T09:19:46.213Z,3.65
2023-05-22T09:22:15.098Z,3.13
2023-05-22T09:24:47.328Z,10.43
2023-05-22T09:27:15.424Z,4.50
2023-05-22T09:29:55.544Z,3.90
2023-05-22T09:32:24.429Z,3.47
2023-05-22T09:34:53.053Z,4.85
2023-05-22T09:37:21.272Z,5.68
2023-05-22T09:39:52.982Z,4.78
2023-05-22T09:42:21.668Z,4.60
2023-05-22T09:44:50.226Z,7.00
2023-05-22T09:47:18.584Z,3.33
2023-05-22T09:49:47.294Z,3.40
2023-05-22T09:52:19.513Z,11.50
2023-05-22T09:54:55.625Z,3.25
2023-05-22T09:57:25.835Z,11.80
2023-05-22T09:59:59.089Z,6.80
2023-05-22T10:02:29.110Z,3.35
2023-05-22T10:04:58.816Z,4.72
2023-05-22T10:07:40.085Z,3.15
2023-05-22T10:10:09.540Z,5.63
2023-05-22T10:12:44.641Z,7.30
2023-05-22T10:15:14.319Z,4.22
2023-05-22T10:17:42.716Z,2.08
2023-05-22T10:20:12.814Z,12.43
2023-05-22T10:22:41.623Z,5.53
2023-05-22T10:25:11.238Z,7.95
2023-05-22T10:27:40.877Z,7.72
2023-05-22T10:30:33.454Z,5.63
2023-05-22T10:33:39.437Z,18.65
2023-05-22T10:36:14.609Z,3.05
2023-05-22T10:39:01.574Z,4.07
2023-05-22T10:41:31.119Z,5.32
2023-05-22T10:43:59.344Z,20.35
2023-05-22T10:46:33.548Z,6.25
2023-05-22T10:49:02.006Z,5.35
2023-05-22T10:51:32.514Z,3.97
2023-05-22T10:54:02.762Z,6.35
2023-05-22T10:56:36.052Z,5.30
2023-05-22T10:59:07.660Z,4.18
2023-05-22T11:01:38.691Z,7.53
2023-05-22T11:07:06.888Z,9.40
2023-05-22T11:09:49.040Z,2.88
2023-05-22T11:12:37.506Z,10.55
2023-05-22T11:15:10.715Z,5.03
2023-05-22T11:17:46.460Z,6.88
2023-05-22T11:20:21.180Z,5.15
2023-05-22T11:23:04.019Z,2.55
2023-05-22T11:25:34.796Z,3.10
2023-05-22T11:28:05.688Z,4.30
2023-05-22T11:30:34.884Z,10.07
2023-05-22T11:33:03.520Z,7.95
2023-05-22T11:35:31.923Z,8.38
2023-05-22T11:38:03.746Z,3.17
2023-05-22T11:40:31.786Z,3.55
2023-05-22T11:43:00.231Z,9.85
2023-05-22T11:45:28.484Z,4.78
2023-05-22T11:47:58.731Z,3.78
2023-05-22T11:50:43.753Z,5.38
2023-05-22T11:53:13.844Z,4.07
2023-05-22T11:55:43.102Z,7.97
2023-05-22T11:58:11.660Z,12.15
2023-05-22T12:00:39.921Z,6.30
2023-05-22T12:03:09.704Z,5.00
2023-05-22T12:05:38.120Z,4.60
2023-05-22T12:08:06.699Z,8.88
2023-05-22T12:10:34.703Z,6.47
2023-05-22T12:13:03.224Z,4.82
2023-05-22T12:15:31.280Z,5.50
2023-05-22T12:17:59.734Z,9.60
2023-05-22T12:20:31.758Z,2.53
2023-05-22T12:23:00.046Z,2.55
2023-05-22T12:25:37.364Z,3.45
2023-05-22T12:28:09.013Z,4.20
2023-05-22T12:30:41.969Z,4.22
2023-05-22T12:33:14.997Z,2.92
2023-05-22T12:35:43.407Z,4.20
2023-05-22T12:38:13.761Z,5.20
2023-05-22T12:40:41.833Z,3.80
2023-05-22T12:43:10.246Z,3.53
2023-05-22T12:45:41.367Z,3.55
2023-05-22T12:48:10.236Z,3.03
2023-05-22T12:50:38.599Z,3.22
2023-05-22T12:53:07.266Z,3.25
2023-05-22T12:55:36.108Z,3.35
2023-05-22T12:58:05.086Z,9.23
2023-05-22T13:00:34.395Z,5.43
2023-05-22T13:03:04.332Z,3.42
2023-05-22T13:05:32.490Z,5.85
2023-05-22T13:08:01.081Z,2.88
2023-05-22T13:10:29.788Z,2.63
2023-05-22T13:12:58.124Z,3.72
2023-05-22T13:15:29.701Z,5.03
2023-05-22T13:17:58.081Z,10.88
2023-05-22T13:20:26.482Z,5.68
2023-05-22T13:22:55.281Z,5.82
2023-05-22T13:25:23.249Z,10.85
2023-05-22T13:27:51.616Z,2.53
2023-05-22T13:30:19.875Z,2.50
2023-05-22T13:32:48.499Z,2.70
2023-05-22T13:35:16.920Z,3.95
2023-05-22T13:37:45.486Z,4.78
2023-05-22T13:40:13.594Z,2.03
2023-05-22T13:42:41.957Z,2.65
2023-05-22T13:45:11.343Z,2.25
2023-05-22T13:47:40.220Z,4.10
2023-05-22T13:50:09.194Z,2.85
2023-05-22T13:52:40.561Z,3.33
2023-05-22T13:55:08.926Z,2.13
2023-05-22T13:57:40.639Z,1.67
2023-05-22T14:00:10.162Z,5.60
2023-05-22T14:02:51.193Z,3.75
2023-05-22T14:05:19.486Z,2.78
2023-05-22T14:07:48.139Z,2.88
2023-05-22T14:10:16.537Z,4.72
2023-05-22T14:12:45.008Z,3.35
2023-05-22T14:15:13.355Z,5.28
2023-05-22T14:17:42.036Z,4.70
2023-05-22T14:20:10.813Z,4.40
2023-05-22T14:22:55.956Z,4.40
2023-05-22T14:25:26.353Z,5.68
2023-05-22T14:27:55.011Z,5.03
2023-05-22T14:30:23.309Z,4.15
2023-05-22T14:32:55.502Z,3.40
2023-05-22T14:35:23.549Z,4.60
2023-05-22T14:37:51.873Z,4.63
2023-05-22T14:40:20.792Z,2.22
2023-05-22T14:42:50.764Z,2.33
2023-05-22T14:45:20.639Z,3.40
2023-05-22T14:47:49.211Z,5.07
2023-05-22T14:50:20.375Z,3.58
2023-05-22T14:52:49.827Z,4.97
2023-05-22T14:55:18.184Z,2.92
2023-05-22T14:57:46.603Z,17.27
2023-05-22T15:00:15.333Z,5.60
2023-05-22T15:02:43.968Z,4.95
2023-05-22T15:05:13.402Z,3.35
2023-05-22T15:07:45.762Z,2.70
2023-05-22T15:10:14.922Z,5.35
2023-05-22T15:12:45.184Z,11.32
2023-05-22T15:15:16.186Z,7.70
2023-05-22T15:17:47.114Z,3.30
2023-05-22T15:20:17.111Z,14.30
2023-05-22T15:22:45.940Z,2.75
2023-05-22T15:25:16.807Z,2.08
2023-05-22T15:27:45.231Z,4.00
2023-05-22T15:30:14.992Z,2.83
2023-05-22T15:32:44.218Z,6.32
2023-05-22T15:35:15.523Z,2.95
2023-05-22T15:37:44.194Z,4.88
2023-05-22T15:40:17.559Z,4.00
2023-05-22T15:42:46.833Z,4.13
2023-05-22T15:45:14.975Z,6.25
2023-05-22T15:47:47.095Z,2.95
2023-05-22T15:50:15.346Z,5.68
2023-05-22T15:52:43.895Z,3.33
2023-05-22T15:55:11.972Z,4.32
2023-05-22T15:57:40.374Z,4.32
2023-05-22T16:00:09.065Z,5.07
2023-05-22T16:02:41.052Z,11.65
2023-05-22T16:05:09.663Z,6.07
2023-05-22T16:07:38.135Z,6.15
2023-05-22T16:10:06.838Z,9.68
2023-05-22T16:12:35.974Z,10.43
2023-05-22T16:15:06.725Z,5.15
2023-05-22T16:17:35.920Z,7.57
2023-05-22T16:20:05.686Z,3.20
2023-05-22T16:22:47.441Z,6.85
2023-05-22T16:25:18.013Z,2.50
2023-05-22T16:27:48.337Z,4.38
2023-05-22T16:30:17.589Z,2.92
2023-05-22T16:32:46.868Z,2.65
2023-05-22T16:35:19.761Z,3.55
2023-05-22T16:37:49.064Z,5.00
2023-05-22T16:40:18.821Z,6.93
2023-05-22T16:42:48.166Z,4.22
2023-05-22T16:45:16.114Z,6.10
2023-05-22T16:47:44.842Z,8.80
2023-05-22T16:50:20.363Z,6.85
2023-05-22T16:52:50.776Z,2.63
2023-05-22T16:55:26.457Z,6.10
2023-05-22T16:57:57.189Z,49.53
2023-05-22T17:00:29.235Z,7.97
2023-05-22T17:03:00.004Z,6.82
2023-05-22T17:05:28.685Z,10.48
2023-05-22T17:08:07.684Z,5.03
2023-05-22T17:10:36.437Z,38.05
2023-05-22T17:13:07.823Z,11.88
2023-05-22T17:15:36.122Z,6.80
2023-05-22T17:18:06.477Z,7.68
2023-05-22T17:20:34.747Z,6.57
2023-05-22T17:23:03.186Z,15.63
2023-05-22T17:25:31.570Z,11.95
2023-05-22T17:28:01.372Z,6.35
2023-05-22T17:30:29.478Z,9.02
2023-05-22T17:32:58.285Z,7.10
2023-05-22T17:35:29.042Z,12.90
2023-05-22T17:37:57.954Z,7.00
2023-05-22T17:40:39.970Z,10.55
2023-05-22T17:43:21.770Z,9.40
2023-05-22T17:45:51.141Z,28.20
2023-05-22T17:48:32.098Z,12.77
2023-05-22T17:51:01.210Z,12.30
2023-05-22T17:53:34.797Z,8.43
2023-05-22T17:56:04.016Z,12.70
2023-05-22T17:58:33.236Z,15.63
2023-05-22T18:01:02.276Z,105.50
2023-05-22T18:03:30.933Z,31.80
2023-05-22T18:05:59.325Z,6.93
2023-05-22T18:08:28.632Z,18.77
2023-05-22T18:10:58.243Z,62.55
2023-05-22T18:13:26.685Z,43.47
2023-05-22T18:15:55.192Z,58.85
2023-05-22T18:18:23.506Z,50.22
2023-05-22T18:20:51.624Z,19.88
2023-05-22T18:23:24.214Z,18.17
2023-05-22T18:25:53.948Z,29.48
2023-05-22T18:28:26.414Z,24.73
2023-05-22T18:30:55.455Z,23.17
2023-05-22T18:33:27.582Z,26.35
2023-05-22T18:35:57.031Z,25.88
2023-05-22T18:38:25.323Z,34.55
2023-05-22T18:40:53.769Z,19.67
2023-05-22T18:43:28.393Z,29.83
2023-05-22T18:45:57.929Z,37.17
2023-05-22T18:48:28.613Z,50.65
2023-05-22T18:50:58.100Z,51.30
2023-05-22T18:53:27.498Z,55.25
2023-05-22T18:55:55.908Z,64.32
2023-05-22T18:58:24.398Z,70.53
2023-05-22T19:00:55.464Z,99.85
2023-05-22T19:03:24.456Z,71.43
2023-05-22T19:05:52.665Z,67.82
2023-05-22T19:08:21.293Z,57.97
2023-05-22T19:10:49.361Z,65.63
2023-05-22T19:13:17.943Z,67.55
2023-05-22T19:15:46.952Z,72.45
2023-05-22T19:18:17.062Z,79.10
2023-05-22T19:20:45.298Z,88.25
2023-05-22T19:23:13.899Z,74.45
2023-05-22T19:25:41.982Z,73.15
2023-05-22T19:28:10.682Z,84.85
2023-05-22T19:30:39.213Z,65.18
2023-05-22T19:33:51.122Z,45.78
2023-05-22T19:36:30.911Z,72.30
2023-05-22T19:38:59.352Z,80.15
2023-05-22T19:41:28.085Z,65.32
2023-05-22T19:43:56.522Z,59.65
2023-05-22T19:46:24.748Z,48.72
2023-05-22T19:48:53.538Z,46.08
2023-05-22T19:51:21.563Z,45.85
2023-05-22T19:53:50.071Z,34.97
2023-05-22T19:56:19.729Z,56.30
2023-05-22T19:58:48.051Z,54.40
2023-05-22T20:01:17.448Z,43.33
2023-05-22T20:04:19.793Z,34.03
2023-05-22T20:06:55.552Z,29.63
2023-05-22T20:09:24.275Z,28.25
2023-05-22T20:11:52.380Z,28.13
2023-05-22T20:14:20.797Z,42.15
2023-05-22T20:16:51.673Z,58.33
2023-05-22T20:19:20.334Z,63.90
2023-05-22T20:21:49.915Z,48.13
2023-05-22T20:24:21.106Z,57.55
2023-05-22T20:26:49.256Z,48.67
2023-05-22T20:29:18.599Z,65.38
2023-05-22T20:31:46.919Z,64.18
2023-05-22T20:34:15.965Z,61.42
2023-05-22T20:36:45.125Z,66.05
2023-05-22T20:39:13.823Z,42.13
2023-05-22T20:41:42.196Z,52.50
2023-05-22T20:44:11.600Z,53.72
2023-05-22T20:46:42.926Z,76.32
2023-05-22T20:49:12.488Z,78.85
2023-05-22T20:51:40.507Z,63.15
2023-05-22T20:54:09.748Z,58.95
2023-05-22T20:56:38.156Z,41.13
2023-05-22T20:59:06.599Z,39.22
2023-05-22T21:01:37.246Z,58.72
2023-05-22T21:04:06.822Z,36.78
2023-05-22T21:06:36.128Z,31.48
2023-05-22T21:09:05.042Z,24.67
2023-05-22T21:11:36.054Z,24.15
2023-05-22T21:14:04.814Z,23.75
2023-05-22T21:16:33.280Z,21.40
2023-05-22T21:19:02.623Z,20.38
2023-05-22T21:21:31.526Z,21.88
2023-05-22T21:24:01.085Z,20.27
2023-05-22T21:26:29.955Z,23.70
2023-05-22T21:28:58.794Z,15.85
2023-05-22T21:31:27.283Z,18.73
2023-05-22T21:33:56.344Z,15.43
2023-05-22T21:36:24.787Z,15.68
2023-05-22T21:38:56.616Z,26.05
2023-05-22T21:41:25.458Z,24.95
2023-05-22T21:43:55.341Z,26.38
2023-05-22T21:46:23.795Z,21.95
2023-05-22T21:48:53.850Z,30.15
2023-05-22T21:51:22.497Z,36.63
2023-05-22T21:53:51.243Z,35.28
2023-05-22T21:56:19.262Z,39.95
2023-05-22T21:58:49.188Z,35.40
2023-05-22T22:01:17.701Z,21.50
2023-05-22T22:03:46.171Z,27.00
2023-05-22T22:06:14.343Z,32.05
2023-05-22T22:08:42.766Z,27.42
2023-05-22T22:11:10.874Z,24.70
2023-05-22T22:13:39.371Z,22.02
2023-05-22T22:16:07.383Z,21.88
2023-05-22T22:18:36.976Z,32.70
2023-05-22T22:21:05.082Z,27.25
2023-05-22T22:23:33.462Z,68.47
2023-05-22T22:26:01.860Z,150.65
2023-05-22T22:28:30.769Z,59.75
2023-05-22T22:30:59.160Z,33.17
2023-05-22T22:33:28.180Z,32.45
2023-05-22T22:35:59.632Z,39.53
2023-05-22T22:38:28.884Z,22.20
2023-05-22T22:40:57.132Z,14.70
2023-05-22T22:43:26.377Z,13.90
2023-05-22T22:45:56.176Z,11.60
2023-05-22T22:48:24.784Z,11.48
2023-05-22T22:50:53.175Z,27.98
2023-05-22T22:53:21.654Z,12.73
2023-05-22T22:55:54.977Z,20.50
2023-05-22T22:58:24.967Z,22.73
2023-05-22T23:00:53.357Z,33.67
2023-05-22T23:03:21.847Z,27.05
2023-05-22T23:05:49.979Z,18.98
2023-05-22T23:08:18.424Z,9.07
2023-05-22T23:10:46.583Z,13.10
2023-05-22T23:13:15.121Z,24.50
2023-05-22T23:15:44.589Z,15.00
2023-05-22T23:18:14.367Z,14.40
2023-05-22T23:20:42.750Z,12.88
2023-05-22T23:23:12.304Z,18.55
2023-05-22T23:25:41.074Z,29.35
2023-05-22T23:28:10.113Z,15.95
2023-05-22T23:30:38.152Z,13.35
2023-05-22T23:33:06.551Z,8.13
2023-05-22T23:35:34.739Z,8.40
2023-05-22T23:38:03.134Z,7.78
2023-05-22T23:40:31.231Z,12.32
2023-05-22T23:42:59.802Z,12.75
2023-05-22T23:45:27.958Z,10.20
2023-05-22T23:47:56.360Z,12.50
2023-05-22T23:50:24.345Z,12.15
2023-05-22T23:52:52.821Z,14.88
2023-05-22T23:55:21.040Z,13.75
2023-05-22T23:57:50.462Z,8.25
